createdAt,value
2017-09-20T00:00:33.211Z,7.10
2017-09-20T00:03:01.571Z,6.10
2017-09-20T00:05:29.914Z,8.50
2017-09-20T00:07:58.190Z,6.53
2017-09-20T00:10:26.494Z,5.17
2017-09-20T00:12:55.024Z,5.40
2017-09-20T00:15:23.670Z,5.40
2017-09-20T00:17:52.759Z,6.93
2017-09-20T00:20:21.062Z,5.23
2017-09-20T00:22:49.375Z,5.17
2017-09-20T00:25:17.638Z,9.20
2017-09-20T00:27:45.971Z,4.87
2017-09-20T00:30:14.278Z,6.10
2017-09-20T00:32:42.582Z,7.47
2017-09-20T00:35:10.875Z,6.40
2017-09-20T00:37:39.167Z,10.43
2017-09-20T00:40:07.766Z,6.70
2017-09-20T00:42:36.126Z,5.63
2017-09-20T00:45:05.231Z,6.10
2017-09-20T00:47:33.623Z,5.33
2017-09-20T00:50:02.016Z,8.70
2017-09-20T00:52:30.323Z,7.50
2017-09-20T00:54:58.630Z,5.23
2017-09-20T00:57:27.025Z,9.83
2017-09-20T00:59:55.342Z,7.73
2017-09-20T01:02:23.702Z,7.50
2017-09-20T01:04:52.007Z,7.33
2017-09-20T01:07:20.339Z,5.73
2017-09-20T01:09:48.610Z,8.20
2017-09-20T01:12:16.918Z,8.63
2017-09-20T01:14:45.223Z,7.57
2017-09-20T01:17:13.527Z,8.27
2017-09-20T01:19:41.831Z,8.40
2017-09-20T01:22:22.207Z,9.20
2017-09-20T01:24:50.470Z,7.60
2017-09-20T01:27:19.515Z,6.37
2017-09-20T01:29:47.850Z,7.43
2017-09-20T01:32:16.119Z,6.40
2017-09-20T01:34:44.454Z,7.17
2017-09-20T01:37:12.730Z,5.90
2017-09-20T01:39:41.039Z,8.00
2017-09-20T01:42:09.668Z,9.50
2017-09-20T01:44:39.546Z,10.47
2017-09-20T01:47:08.620Z,7.10
2017-09-20T01:49:37.170Z,7.90
2017-09-20T01:52:06.266Z,17.63
2017-09-20T01:54:35.550Z,7.00
2017-09-20T01:57:04.011Z,12.00
2017-09-20T01:59:33.067Z,10.10
2017-09-20T02:02:02.178Z,9.43
2017-09-20T02:04:30.483Z,24.07
2017-09-20T02:06:58.799Z,11.63
2017-09-20T02:09:27.074Z,8.93
2017-09-20T02:11:56.243Z,13.50
2017-09-20T02:14:24.578Z,9.80
2017-09-20T02:16:53.866Z,11.57
2017-09-20T02:19:22.213Z,10.00
2017-09-20T02:21:50.526Z,10.57
2017-09-20T02:24:19.603Z,12.63
2017-09-20T02:26:47.915Z,12.00
2017-09-20T02:29:16.203Z,13.07
2017-09-20T02:31:44.606Z,13.53
2017-09-20T02:34:12.901Z,13.30
2017-09-20T02:36:41.176Z,15.13
2017-09-20T02:39:11.338Z,14.27
2017-09-20T02:41:40.804Z,13.83
2017-09-20T02:44:09.118Z,10.70
2017-09-20T02:46:37.402Z,12.57
2017-09-20T02:49:05.723Z,15.57
2017-09-20T02:51:34.815Z,14.10
2017-09-20T02:54:03.116Z,13.20
2017-09-20T02:56:31.619Z,13.50
2017-09-20T02:58:59.905Z,11.93
2017-09-20T03:01:28.187Z,14.43
2017-09-20T03:03:56.502Z,12.10
2017-09-20T03:06:24.818Z,12.57
2017-09-20T03:08:53.106Z,14.87
2017-09-20T03:11:21.443Z,12.80
2017-09-20T03:13:49.835Z,16.13
2017-09-20T03:16:18.133Z,12.97
2017-09-20T03:18:46.456Z,15.23
2017-09-20T03:21:14.811Z,18.33
2017-09-20T03:23:43.095Z,17.20
2017-09-20T03:26:11.425Z,17.57
2017-09-20T03:28:39.747Z,17.40
2017-09-20T03:31:08.043Z,21.40
2017-09-20T03:33:36.358Z,14.93
2017-09-20T03:36:04.758Z,19.67
2017-09-20T03:38:33.349Z,15.50
2017-09-20T03:41:01.630Z,15.63
2017-09-20T03:43:29.951Z,15.67
2017-09-20T03:45:58.270Z,15.33
2017-09-20T03:48:26.562Z,17.13
2017-09-20T03:50:54.883Z,12.53
2017-09-20T03:53:23.371Z,19.13
2017-09-20T03:55:51.659Z,20.60
2017-09-20T03:58:19.946Z,30.83
2017-09-20T04:00:48.264Z,19.83
2017-09-20T04:03:16.550Z,23.30
2017-09-20T04:05:44.863Z,21.67
2017-09-20T04:08:13.179Z,18.40
2017-09-20T04:10:41.462Z,20.40
2017-09-20T04:13:09.959Z,22.77
2017-09-20T04:15:38.247Z,27.30
2017-09-20T04:18:06.536Z,22.40
2017-09-20T04:20:35.714Z,39.03
2017-09-20T04:23:04.050Z,17.53
2017-09-20T04:25:33.115Z,20.00
2017-09-20T04:28:02.096Z,15.23
2017-09-20T04:30:31.178Z,17.97
2017-09-20T04:32:59.475Z,15.00
2017-09-20T04:35:27.794Z,16.53
2017-09-20T04:37:56.078Z,21.50
2017-09-20T04:40:24.395Z,21.07
2017-09-20T04:42:52.706Z,17.97
2017-09-20T04:45:20.995Z,16.73
2017-09-20T04:47:49.279Z,16.80
2017-09-20T04:50:17.680Z,20.20
2017-09-20T04:52:46.194Z,17.60
2017-09-20T04:55:14.503Z,17.10
2017-09-20T04:57:42.788Z,20.03
2017-09-20T05:00:11.202Z,15.47
2017-09-20T05:02:39.504Z,18.63
2017-09-20T05:05:07.791Z,18.27
2017-09-20T05:07:36.136Z,19.80
2017-09-20T05:10:04.462Z,20.90
2017-09-20T05:12:32.911Z,19.60
2017-09-20T05:15:01.231Z,19.00
2017-09-20T05:17:29.514Z,22.43
2017-09-20T05:19:57.808Z,19.50
2017-09-20T05:22:26.131Z,26.77
2017-09-20T05:24:54.446Z,18.63
2017-09-20T05:27:22.786Z,17.27
2017-09-20T05:29:51.103Z,18.57
2017-09-20T05:32:19.423Z,19.90
2017-09-20T05:34:47.834Z,20.73
2017-09-20T05:37:16.147Z,23.00
2017-09-20T05:39:44.466Z,20.77
2017-09-20T05:42:12.783Z,19.37
2017-09-20T05:44:41.836Z,22.53
2017-09-20T05:47:10.158Z,25.60
2017-09-20T05:49:38.471Z,26.10
2017-09-20T05:52:06.771Z,25.97
2017-09-20T05:54:35.090Z,20.33
2017-09-20T05:57:03.379Z,25.63
2017-09-20T05:59:31.700Z,23.97
2017-09-20T06:02:00.779Z,23.80
2017-09-20T06:04:29.291Z,24.73
2017-09-20T06:06:57.594Z,23.37
2017-09-20T06:09:25.883Z,26.40
2017-09-20T06:11:54.198Z,33.20
2017-09-20T06:14:22.519Z,24.10
2017-09-20T06:16:50.811Z,24.00
2017-09-20T06:19:19.179Z,20.13
2017-09-20T06:21:47.471Z,25.07
2017-09-20T06:24:15.758Z,26.83
2017-09-20T06:26:44.855Z,26.27
2017-09-20T06:29:13.147Z,29.80
2017-09-20T06:31:41.535Z,26.50
2017-09-20T06:34:09.831Z,25.17
2017-09-20T06:36:38.166Z,24.93
2017-09-20T06:39:06.458Z,29.40
2017-09-20T06:41:34.791Z,26.10
2017-09-20T06:44:03.975Z,24.87
2017-09-20T06:46:32.307Z,28.23
2017-09-20T06:49:00.650Z,34.53
2017-09-20T06:51:28.943Z,30.47
2017-09-20T06:53:57.268Z,33.27
2017-09-20T06:56:25.619Z,30.37
2017-09-20T06:58:54.675Z,30.43
2017-09-20T07:01:23.003Z,28.30
2017-09-20T07:03:51.331Z,31.73
2017-09-20T07:06:20.399Z,32.00
2017-09-20T07:08:48.714Z,38.00
2017-09-20T07:11:17.043Z,31.53
2017-09-20T07:13:45.330Z,31.77
2017-09-20T07:16:13.659Z,26.10
2017-09-20T07:18:41.956Z,29.40
2017-09-20T07:21:10.282Z,28.93
2017-09-20T07:23:38.578Z,35.63
2017-09-20T07:26:07.640Z,34.27
2017-09-20T07:28:35.971Z,34.00
2017-09-20T07:31:04.363Z,32.13
2017-09-20T07:33:32.763Z,31.30
2017-09-20T07:36:01.055Z,31.33
2017-09-20T07:38:29.379Z,40.03
2017-09-20T07:40:57.670Z,34.00
2017-09-20T07:43:25.998Z,31.27
2017-09-20T07:45:54.315Z,26.77
2017-09-20T07:48:23.494Z,30.70
2017-09-20T07:50:51.828Z,34.83
2017-09-20T07:53:20.935Z,31.63
2017-09-20T07:55:49.219Z,29.80
2017-09-20T07:58:17.506Z,32.67
2017-09-20T08:00:45.922Z,31.13
2017-09-20T08:03:14.210Z,26.83
2017-09-20T08:05:42.527Z,29.63
2017-09-20T08:08:10.814Z,27.33
2017-09-20T08:10:39.148Z,27.23
2017-09-20T08:13:07.500Z,30.40
2017-09-20T08:15:35.814Z,23.57
2017-09-20T08:18:04.146Z,27.70
2017-09-20T08:20:32.434Z,27.37
2017-09-20T08:23:00.731Z,23.53
2017-09-20T08:25:29.041Z,22.97
2017-09-20T08:27:57.331Z,24.33
2017-09-20T08:30:25.655Z,21.80
2017-09-20T08:32:53.943Z,24.33
2017-09-20T08:35:22.267Z,24.93
2017-09-20T08:37:50.591Z,20.40
2017-09-20T08:40:19.780Z,20.57
2017-09-20T08:42:48.175Z,22.40
2017-09-20T08:45:16.459Z,21.23
2017-09-20T08:47:44.783Z,19.77
2017-09-20T08:50:13.180Z,28.43
2017-09-20T08:52:41.594Z,17.87
2017-09-20T08:55:09.883Z,17.93
2017-09-20T08:57:38.206Z,19.67
2017-09-20T09:00:06.526Z,18.73
2017-09-20T09:02:35.632Z,24.80
2017-09-20T09:05:03.925Z,17.43
2017-09-20T09:07:32.314Z,16.80
2017-09-20T09:10:00.608Z,12.30
2017-09-20T09:12:28.922Z,16.30
2017-09-20T09:14:57.206Z,15.43
2017-09-20T09:17:25.515Z,18.13
2017-09-20T09:19:53.837Z,13.23
2017-09-20T09:22:22.122Z,16.97
2017-09-20T09:24:50.430Z,15.00
2017-09-20T09:27:18.713Z,15.10
2017-09-20T09:29:47.239Z,15.80
2017-09-20T09:32:15.527Z,17.87
2017-09-20T09:34:43.815Z,23.20
2017-09-20T09:37:12.149Z,14.87
2017-09-20T09:39:40.447Z,15.50
2017-09-20T09:42:08.855Z,12.80
2017-09-20T09:44:37.171Z,29.43
2017-09-20T09:47:06.955Z,9.77
2017-09-20T09:49:35.278Z,10.33
2017-09-20T09:52:03.567Z,11.47
2017-09-20T09:54:31.891Z,13.57
2017-09-20T09:57:00.295Z,8.40
2017-09-20T09:59:28.575Z,10.43
2017-09-20T10:01:56.902Z,10.87
2017-09-20T10:04:25.182Z,7.57
2017-09-20T10:06:53.458Z,12.33
2017-09-20T10:09:21.771Z,14.83
2017-09-20T10:11:50.050Z,11.63
2017-09-20T10:14:19.135Z,8.93
2017-09-20T10:16:47.439Z,12.70
2017-09-20T10:19:15.751Z,8.53
2017-09-20T10:21:44.030Z,7.70
2017-09-20T10:24:12.339Z,8.83
2017-09-20T10:26:40.618Z,6.17
2017-09-20T10:29:08.939Z,3.13
2017-09-20T10:31:37.251Z,4.83
2017-09-20T10:34:05.534Z,3.00
2017-09-20T10:36:33.894Z,4.00
2017-09-20T10:39:03.162Z,4.83
2017-09-20T10:41:31.462Z,2.03
2017-09-20T10:43:59.750Z,1.93
2017-09-20T10:46:28.071Z,4.97
2017-09-20T10:48:56.371Z,3.73
2017-09-20T10:51:24.651Z,3.10
2017-09-20T10:53:52.975Z,2.50
2017-09-20T10:56:21.386Z,2.80
2017-09-20T10:58:49.787Z,2.87
2017-09-20T11:01:18.059Z,1.77
2017-09-20T11:03:46.379Z,1.67
2017-09-20T11:06:14.655Z,2.80
2017-09-20T11:08:42.990Z,3.93
2017-09-20T11:11:11.394Z,1.73
2017-09-20T11:13:39.670Z,2.97
2017-09-20T11:16:07.982Z,2.30
2017-09-20T11:18:36.407Z,2.90
2017-09-20T11:21:04.714Z,2.40
2017-09-20T11:23:32.992Z,1.43
2017-09-20T11:26:01.298Z,1.03
2017-09-20T11:28:29.607Z,0.80
2017-09-20T11:30:58.011Z,1.73
2017-09-20T11:33:26.319Z,2.37
2017-09-20T11:35:54.630Z,2.60
2017-09-20T11:38:22.939Z,0.83
2017-09-20T11:40:52.754Z,2.20
2017-09-20T11:43:21.034Z,1.90
2017-09-20T11:45:49.343Z,3.33
2017-09-20T11:48:17.618Z,4.37
2017-09-20T11:50:45.927Z,5.60
2017-09-20T11:53:14.271Z,3.60
2017-09-20T11:55:42.576Z,1.33
2017-09-20T11:58:10.887Z,3.00
2017-09-20T12:00:39.268Z,3.00
2017-09-20T12:03:07.544Z,2.70
2017-09-20T12:05:35.886Z,3.33
2017-09-20T12:08:04.812Z,5.93
2017-09-20T12:10:33.207Z,3.73
2017-09-20T12:13:01.594Z,6.13
2017-09-20T12:15:29.999Z,5.43
2017-09-20T12:17:58.298Z,3.37
2017-09-20T12:20:26.703Z,3.13
2017-09-20T12:22:54.982Z,1.73
2017-09-20T12:25:23.295Z,1.20
2017-09-20T12:27:51.575Z,2.87
2017-09-20T12:30:19.883Z,3.90
2017-09-20T12:32:48.206Z,1.30
2017-09-20T12:35:16.487Z,2.10
2017-09-20T12:37:44.764Z,2.63
2017-09-20T12:40:13.830Z,3.13
2017-09-20T12:42:42.110Z,1.70
2017-09-20T12:45:10.425Z,1.37
2017-09-20T12:47:38.731Z,1.87
2017-09-20T12:50:07.018Z,2.93
2017-09-20T12:52:35.330Z,4.13
2017-09-20T12:55:03.643Z,1.50
2017-09-20T12:57:31.918Z,2.50
2017-09-20T13:00:00.226Z,1.20
2017-09-20T13:02:28.530Z,1.43
2017-09-20T13:04:56.807Z,7.43
2017-09-20T13:07:25.891Z,0.90
2017-09-20T13:09:54.175Z,1.10
2017-09-20T13:12:22.450Z,0.83
2017-09-20T13:14:50.774Z,0.70
2017-09-20T13:17:19.047Z,1.90
2017-09-20T13:19:47.350Z,0.93
2017-09-20T13:22:15.674Z,1.27
2017-09-20T13:24:43.979Z,4.53
2017-09-20T13:27:12.288Z,2.53
2017-09-20T13:29:40.599Z,1.90
2017-09-20T13:32:08.886Z,0.60
2017-09-20T13:34:37.162Z,0.90
2017-09-20T13:37:05.599Z,3.37
2017-09-20T13:39:33.923Z,2.10
2017-09-20T13:42:02.202Z,2.13
2017-09-20T13:44:30.514Z,3.50
2017-09-20T13:47:00.302Z,2.23
2017-09-20T13:49:28.611Z,1.27
2017-09-20T13:51:56.895Z,1.20
2017-09-20T13:54:25.239Z,3.70
2017-09-20T13:56:53.515Z,5.40
2017-09-20T13:59:21.802Z,0.90
2017-09-20T14:01:50.111Z,1.53
2017-09-20T14:04:18.446Z,2.33
2017-09-20T14:06:46.757Z,1.43
2017-09-20T14:09:15.031Z,4.23
2017-09-20T14:11:43.354Z,2.30
2017-09-20T14:14:11.651Z,4.10
2017-09-20T14:16:39.960Z,0.70
2017-09-20T14:19:08.261Z,1.17
2017-09-20T14:21:36.555Z,9.47
2017-09-20T14:24:04.975Z,0.90
2017-09-20T14:26:33.259Z,3.43
2017-09-20T14:29:01.535Z,3.60
2017-09-20T14:31:29.862Z,1.90
2017-09-20T14:33:58.175Z,2.50
2017-09-20T14:36:26.451Z,2.47
2017-09-20T14:38:54.771Z,0.67
2017-09-20T14:41:23.052Z,3.63
2017-09-20T14:43:51.385Z,2.97
2017-09-20T14:46:19.879Z,1.23
2017-09-20T14:48:48.163Z,3.07
2017-09-20T14:51:16.457Z,3.03
2017-09-20T14:53:44.786Z,1.50
2017-09-20T14:56:13.095Z,4.20
2017-09-20T14:58:41.410Z,4.40
2017-09-20T15:01:09.695Z,4.33
2017-09-20T15:03:38.026Z,3.30
2017-09-20T15:06:06.311Z,3.40
2017-09-20T15:08:34.602Z,3.57
2017-09-20T15:11:02.994Z,4.57
2017-09-20T15:13:31.399Z,1.60
2017-09-20T15:15:59.733Z,2.50
2017-09-20T15:18:29.548Z,2.47
2017-09-20T15:20:57.845Z,5.90
2017-09-20T15:23:26.158Z,2.30
2017-09-20T15:25:54.446Z,1.53
2017-09-20T15:28:22.726Z,1.90
2017-09-20T15:30:51.040Z,1.60
2017-09-20T15:33:19.324Z,1.37
2017-09-20T15:35:47.627Z,1.07
2017-09-20T15:38:15.955Z,3.67
2017-09-20T15:40:44.239Z,2.10
2017-09-20T15:43:12.539Z,1.80
2017-09-20T15:45:40.842Z,0.70
2017-09-20T15:48:09.122Z,2.57
2017-09-20T15:50:37.475Z,2.17
2017-09-20T15:53:05.779Z,0.97
2017-09-20T15:55:34.896Z,2.00
2017-09-20T15:58:03.286Z,0.90
2017-09-20T16:00:31.595Z,0.80
2017-09-20T16:02:59.890Z,1.37
2017-09-20T16:05:28.204Z,0.90
2017-09-20T16:07:56.487Z,2.10
2017-09-20T16:10:24.795Z,3.03
2017-09-20T16:12:53.075Z,2.77
2017-09-20T16:15:21.395Z,1.17
2017-09-20T16:17:49.680Z,4.20
2017-09-20T16:20:18.011Z,0.93
2017-09-20T16:22:46.335Z,2.80
2017-09-20T16:25:14.615Z,2.50
2017-09-20T16:27:48.740Z,4.20
2017-09-20T16:30:17.047Z,2.20
2017-09-20T16:32:45.319Z,3.13
2017-09-20T16:35:13.631Z,3.23
2017-09-20T16:37:41.954Z,1.00
2017-09-20T16:40:10.266Z,2.60
2017-09-20T16:42:38.542Z,2.50
2017-09-20T16:45:06.828Z,5.90
2017-09-20T16:47:35.223Z,4.07
2017-09-20T16:50:03.550Z,5.20
2017-09-20T16:52:31.863Z,4.63
2017-09-20T16:55:00.142Z,4.17
2017-09-20T16:57:28.567Z,8.30
2017-09-20T16:59:56.852Z,4.37
2017-09-20T17:02:25.186Z,4.43
2017-09-20T17:04:53.574Z,8.93
2017-09-20T17:07:21.858Z,3.40
2017-09-20T17:09:50.139Z,9.23
2017-09-20T17:12:18.496Z,4.43
2017-09-20T17:14:46.886Z,1.87
2017-09-20T17:17:15.195Z,6.17
2017-09-20T17:19:43.470Z,4.27
2017-09-20T17:22:11.789Z,3.80
2017-09-20T17:24:40.070Z,1.57
2017-09-20T17:27:08.366Z,2.13
2017-09-20T17:29:36.691Z,2.23
2017-09-20T17:32:05.003Z,1.10
2017-09-20T17:34:33.922Z,1.50
2017-09-20T17:37:02.600Z,1.10
2017-09-20T17:39:30.906Z,1.73
2017-09-20T17:41:59.215Z,1.93
2017-09-20T17:44:27.502Z,1.90
2017-09-20T17:46:55.907Z,12.43
2017-09-20T17:49:24.299Z,11.30
2017-09-20T17:51:53.485Z,6.37
2017-09-20T17:54:23.270Z,5.90
2017-09-20T17:56:51.550Z,4.53
2017-09-20T17:59:20.627Z,3.90
2017-09-20T18:01:48.979Z,3.27
2017-09-20T18:04:17.337Z,3.90
2017-09-20T18:06:45.615Z,3.30
2017-09-20T18:09:14.039Z,4.70
2017-09-20T18:11:42.319Z,5.47
2017-09-20T18:14:10.645Z,2.30
2017-09-20T18:16:38.983Z,4.83
2017-09-20T18:19:08.159Z,3.80
2017-09-20T18:21:36.940Z,1.60
2017-09-20T18:24:06.138Z,2.83
2017-09-20T18:26:36.788Z,4.00
2017-09-20T18:29:05.835Z,2.93
2017-09-20T18:31:34.443Z,10.83
2017-09-20T18:34:02.762Z,1.63
2017-09-20T18:36:31.046Z,4.40
2017-09-20T18:38:59.359Z,1.30
2017-09-20T18:41:27.679Z,1.17
2017-09-20T18:43:56.055Z,2.20
2017-09-20T18:46:24.374Z,1.73
2017-09-20T18:54:54.621Z,2.40
2017-09-20T18:57:22.999Z,2.10
2017-09-20T18:59:51.351Z,1.30
2017-09-20T19:02:19.674Z,1.03
2017-09-20T19:04:47.959Z,1.37
2017-09-20T19:07:16.242Z,1.30
2017-09-20T19:09:44.547Z,1.67
2017-09-20T19:12:12.856Z,1.40
2017-09-20T19:14:41.179Z,2.27
2017-09-20T19:17:09.885Z,8.43
2017-09-20T19:19:39.304Z,1.40
2017-09-20T19:22:07.702Z,9.60
2017-09-20T19:24:37.846Z,2.17
2017-09-20T19:27:06.373Z,2.37
2017-09-20T19:29:36.222Z,3.63
2017-09-20T19:32:04.652Z,1.30
2017-09-20T19:34:33.104Z,2.60
2017-09-20T19:37:02.243Z,1.27
2017-09-20T19:39:31.363Z,3.77
2017-09-20T19:41:59.688Z,1.30
2017-09-20T19:44:28.730Z,1.77
2017-09-20T19:46:57.135Z,2.70
2017-09-20T19:49:25.483Z,2.93
2017-09-20T19:51:53.826Z,5.53
2017-09-20T19:54:22.915Z,3.43
2017-09-20T19:56:52.770Z,2.37
2017-09-20T19:59:21.052Z,2.70
2017-09-20T20:01:49.334Z,1.13
2017-09-20T20:04:17.651Z,1.30
2017-09-20T20:06:45.983Z,1.60
2017-09-20T20:09:15.126Z,2.03
2017-09-20T20:11:43.447Z,1.27
2017-09-20T20:14:11.802Z,3.30
2017-09-20T20:16:40.195Z,2.20
2017-09-20T20:19:08.631Z,3.73
2017-09-20T20:21:37.758Z,1.30
2017-09-20T20:24:06.405Z,2.30
2017-09-20T20:26:34.955Z,2.10
2017-09-20T20:29:04.243Z,1.40
2017-09-20T20:31:32.760Z,2.40
2017-09-20T20:34:01.054Z,3.47
2017-09-20T20:36:29.552Z,2.97
2017-09-20T20:38:58.886Z,2.37
2017-09-20T20:41:27.593Z,4.60
2017-09-20T20:43:56.388Z,1.93
2017-09-20T20:46:25.783Z,4.00
2017-09-20T20:48:55.058Z,2.67
2017-09-20T20:51:23.363Z,1.30
2017-09-20T20:53:52.602Z,4.23
2017-09-20T20:56:20.883Z,3.37
2017-09-20T20:58:49.211Z,1.77
2017-09-20T21:01:17.491Z,4.00
2017-09-20T21:03:45.774Z,3.03
2017-09-20T21:06:14.081Z,2.10
2017-09-20T21:08:42.363Z,4.47
2017-09-20T21:11:10.741Z,8.67
2017-09-20T21:13:39.852Z,15.43
2017-09-20T21:16:09.023Z,25.20
2017-09-20T21:18:37.489Z,14.43
2017-09-20T21:21:06.882Z,10.20
2017-09-20T21:23:35.690Z,7.40
2017-09-20T21:26:04.211Z,6.47
2017-09-20T21:28:32.703Z,5.43
2017-09-20T21:31:00.982Z,3.83
2017-09-20T21:33:29.306Z,4.50
2017-09-20T21:35:57.626Z,5.60
2017-09-20T21:38:26.131Z,3.50
2017-09-20T21:40:54.731Z,3.27
2017-09-20T21:43:23.030Z,3.80
2017-09-20T21:45:51.424Z,2.23
2017-09-20T21:48:19.739Z,7.80
2017-09-20T21:50:48.134Z,1.70
2017-09-20T21:53:16.467Z,2.80
2017-09-20T21:55:44.842Z,3.00
2017-09-20T21:58:13.122Z,1.83
2017-09-20T22:00:41.473Z,3.17
2017-09-20T22:03:11.319Z,2.10
2017-09-20T22:05:39.743Z,2.43
2017-09-20T22:08:08.291Z,2.50
2017-09-20T22:10:36.779Z,3.33
2017-09-20T22:13:05.127Z,3.23
2017-09-20T22:15:45.227Z,5.93
2017-09-20T22:18:32.331Z,3.27
2017-09-20T22:21:18.595Z,3.90
2017-09-20T22:24:05.008Z,5.83
2017-09-20T22:26:44.844Z,2.13
2017-09-20T22:29:13.694Z,1.83
2017-09-20T22:31:42.083Z,3.07
2017-09-20T22:34:10.459Z,1.90
2017-09-20T22:36:39.718Z,2.33
2017-09-20T22:39:08.178Z,2.30
2017-09-20T22:41:36.713Z,1.80
2017-09-20T22:44:05.143Z,3.30
2017-09-20T22:46:33.680Z,2.83
2017-09-20T22:49:02.729Z,2.23
2017-09-20T22:51:31.039Z,3.03
2017-09-20T22:53:59.351Z,2.00
2017-09-20T22:56:27.666Z,4.03
2017-09-20T22:58:56.035Z,2.43
2017-09-20T23:01:24.315Z,2.63
2017-09-20T23:03:52.664Z,2.00
2017-09-20T23:06:20.942Z,2.17
2017-09-20T23:08:49.219Z,2.77
2017-09-20T23:11:18.286Z,2.50
2017-09-20T23:13:46.563Z,1.87
2017-09-20T23:16:14.876Z,2.53
2017-09-20T23:18:43.148Z,2.13
2017-09-20T23:21:11.461Z,2.27
2017-09-20T23:23:40.083Z,3.30
2017-09-20T23:26:08.375Z,11.00
2017-09-20T23:28:36.932Z,3.00
2017-09-20T23:31:05.407Z,3.60
2017-09-20T23:33:34.839Z,2.33
2017-09-20T23:36:04.355Z,4.90
2017-09-20T23:38:32.678Z,4.37
2017-09-20T23:41:00.994Z,4.00
2017-09-20T23:43:29.278Z,4.53
2017-09-20T23:45:57.591Z,2.80
2017-09-20T23:48:25.911Z,2.07
2017-09-20T23:50:55.301Z,2.80
2017-09-20T23:53:23.731Z,3.20
2017-09-20T23:55:52.095Z,2.27
2017-09-20T23:58:20.523Z,2.60
